Time;durP1;ratioP1;P1;durP2;ratioP2;P2;SDS_P1;SDS_P2;PMS_P1;PMS_P2;Temp;Humidity;BMP_temperature;BMP_pressure;BME280_temperature;BME280_humidity;BME280_pressure;Samples;Min_cycle;Max_cycle;Signal;HPM_P1;HPM_P2
2021/04/08 00:00:11;;;;;;;5.90;1.15;;;2.40;99.90;;;;;;5064549;28;20516;-65
2021/04/08 00:02:42;;;;;;;10.70;1.75;;;2.40;99.90;;;;;;5063922;28;20041;-65
2021/04/08 00:05:09;;;;;;;11.48;2.35;;;2.40;99.90;;;;;;5063816;28;20049;-65
2021/04/08 00:07:35;;;;;;;8.55;1.80;;;2.40;99.90;;;;;;5064335;28;20047;-65
2021/04/08 00:10:01;;;;;;;15.38;2.10;;;2.40;99.90;;;;;;5063858;28;20100;-65
2021/04/08 00:12:27;;;;;;;8.95;1.95;;;2.40;99.90;;;;;;5064694;28;20075;-65
2021/04/08 00:14:53;;;;;;;14.20;2.08;;;2.40;99.90;;;;;;5064404;28;20041;-66
2021/04/08 00:17:18;;;;;;;18.30;2.85;;;2.30;99.90;;;;;;5064432;28;20083;-65
2021/04/08 00:19:44;;;;;;;12.48;2.35;;;2.20;99.90;;;;;;5063755;28;20037;-65
2021/04/08 00:22:10;;;;;;;12.73;2.20;;;2.10;99.90;;;;;;5064291;28;20045;-65
2021/04/08 00:24:36;;;;;;;16.30;3.50;;;2.10;99.90;;;;;;5062430;28;20047;-65
2021/04/08 00:27:01;;;;;;;20.65;2.60;;;2.00;99.90;;;;;;5064117;28;20075;-66
2021/04/08 00:29:27;;;;;;;15.95;2.50;;;2.00;99.90;;;;;;5063840;28;20247;-65
2021/04/08 00:31:54;;;;;;;7.82;1.83;;;1.90;99.90;;;;;;5062618;28;20056;-66
2021/04/08 00:34:24;;;;;;;11.52;2.22;;;1.90;99.90;;;;;;5072815;28;20072;-65
2021/04/08 00:36:50;;;;;;;13.30;2.05;;;1.90;99.90;;;;;;5064133;28;20041;-65
2021/04/08 00:39:16;;;;;;;15.32;1.88;;;1.80;99.90;;;;;;5063230;28;20041;-66
2021/04/08 00:41:42;;;;;;;8.25;2.55;;;1.70;99.90;;;;;;5064072;28;20043;-66
2021/04/08 00:44:09;;;;;;;13.50;2.45;;;1.60;99.90;;;;;;5063679;28;20041;-66
2021/04/08 00:46:34;;;;;;;20.50;2.40;;;1.60;99.90;;;;;;5063359;28;20075;-66
2021/04/08 00:49:00;;;;;;;16.52;2.13;;;1.40;99.90;;;;;;5063713;28;20049;-67
2021/04/08 00:51:27;;;;;;;20.33;2.70;;;1.50;99.90;;;;;;5063541;28;20060;-66
2021/04/08 00:53:53;;;;;;;12.55;2.05;;;1.40;99.90;;;;;;5063629;28;20055;-66
2021/04/08 00:56:21;;;;;;;19.45;3.75;;;1.40;99.90;;;;;;5063234;28;20047;-65
2021/04/08 00:58:49;;;;;;;12.73;2.22;;;1.30;99.90;;;;;;5062935;28;20045;-66
2021/04/08 01:01:15;;;;;;;;;;;1.30;99.90;;;;;;5064024;28;20052;-65
2021/04/08 01:03:41;;;;;;;18.25;3.85;;;1.20;99.90;;;;;;5063420;28;19921;-65
2021/04/08 01:06:07;;;;;;;16.58;2.75;;;1.20;99.90;;;;;;5063367;28;20071;-67
2021/04/08 01:08:35;;;;;;;16.17;3.05;;;1.20;99.90;;;;;;5063348;28;20067;-66
2021/04/08 01:11:01;;;;;;;22.17;3.03;;;1.30;99.90;;;;;;5062591;28;20045;-66
2021/04/08 01:13:29;;;;;;;21.10;2.92;;;1.30;99.90;;;;;;5075681;28;20046;-66
2021/04/08 01:16:00;;;;;;;7.65;2.45;;;1.40;99.90;;;;;;5058869;28;20100;-65
2021/04/08 01:18:33;;;;;;;16.52;2.85;;;1.50;99.90;;;;;;5063346;28;20049;-65
2021/04/08 01:21:19;;;;;;;11.15;2.88;;;1.70;99.90;;;;;;5063158;28;20041;-65
2021/04/08 01:24:24;;;;;;;17.50;3.15;;;1.80;99.90;;;;;;5063318;28;20052;-65
2021/04/08 01:27:29;;;;;;;16.38;2.80;;;1.80;99.90;;;;;;5063082;28;20047;-65
2021/04/08 01:30:22;;;;;;;23.02;2.80;;;1.80;99.90;;;;;;5000903;28;20097;-66
2021/04/08 01:32:54;;;;;;;14.98;2.92;;;1.80;99.90;;;;;;4996705;28;20239;-65
2021/04/08 01:35:25;;;;;;;11.75;1.63;;;1.80;99.90;;;;;;4989865;28;20076;-66
2021/04/08 01:38:05;;;;;;;7.70;1.88;;;1.80;99.90;;;;;;4996485;28;20054;-65
2021/04/08 01:40:32;;;;;;;8.80;1.35;;;1.80;99.90;;;;;;4989680;28;20054;-65
2021/04/08 01:43:00;;;;;;;8.23;1.65;;;1.90;99.90;;;;;;4996126;28;20054;-66
2021/04/08 01:45:28;;;;;;;8.57;1.42;;;1.90;99.90;;;;;;4989265;28;20050;-65
2021/04/08 01:47:56;;;;;;;8.70;2.15;;;1.90;99.90;;;;;;4995683;28;20093;-65
2021/04/08 01:50:24;;;;;;;5.97;2.05;;;2.00;99.90;;;;;;5000781;28;20043;-65
2021/04/08 01:52:51;;;;;;;8.80;1.67;;;2.00;99.90;;;;;;4999758;28;20396;-65
2021/04/08 01:55:19;;;;;;;13.30;1.83;;;2.00;99.90;;;;;;5001097;28;20049;-65
2021/04/08 01:57:47;;;;;;;13.35;1.75;;;1.90;99.90;;;;;;4998440;28;20466;-65
2021/04/08 02:00:17;;;;;;;7.75;1.27;;;1.90;99.90;;;;;;5000578;28;20062;-65
2021/04/08 02:02:46;;;;;;;4.20;1.27;;;1.80;99.90;;;;;;5001053;28;20457;-65
2021/04/08 02:05:15;;;;;;;10.43;1.45;;;1.70;99.90;;;;;;5027029;28;20060;-65
2021/04/08 02:07:41;;;;;;;14.43;1.65;;;1.70;99.90;;;;;;5062702;28;20041;-65
2021/04/08 02:10:11;;;;;;;6.07;1.65;;;1.60;99.90;;;;;;5062322;28;20048;-66
2021/04/08 02:12:39;;;;;;;11.20;1.63;;;1.60;99.90;;;;;;5062567;28;20067;-66
2021/04/08 02:15:07;;;;;;;7.82;1.42;;;1.70;99.90;;;;;;5062435;28;20040;-65
2021/04/08 02:17:35;;;;;;;10.10;2.03;;;1.60;99.90;;;;;;5063322;28;20063;-66
2021/04/08 02:20:08;;;;;;;9.93;1.63;;;1.60;99.90;;;;;;5062499;28;20045;-66
2021/04/08 02:22:34;;;;;;;5.43;1.20;;;1.50;99.90;;;;;;5062577;28;20056;-66
2021/04/08 02:25:00;;;;;;;6.35;1.15;;;1.60;99.90;;;;;;5062006;28;20045;-66
2021/04/08 02:27:27;;;;;;;8.80;2.42;;;1.60;99.90;;;;;;5064377;28;20083;-65
2021/04/08 02:29:54;;;;;;;19.38;3.60;;;1.50;99.90;;;;;;5066377;28;20109;-66
2021/04/08 02:32:21;;;;;;;14.23;2.53;;;1.50;99.90;;;;;;5066364;28;20100;-65
2021/04/08 02:34:46;;;;;;;7.18;1.30;;;1.50;99.90;;;;;;5066283;28;20048;-65
2021/04/08 02:37:12;;;;;;;9.60;1.63;;;1.40;99.90;;;;;;5066150;28;20179;-65
2021/04/08 02:39:38;;;;;;;10.57;1.40;;;1.40;99.90;;;;;;5065471;28;20121;-64
2021/04/08 02:42:04;;;;;;;7.95;1.88;;;1.40;99.90;;;;;;5066413;28;20045;-65
2021/04/08 02:44:30;;;;;;;6.35;1.15;;;1.40;99.90;;;;;;5066003;28;20572;-66
2021/04/08 02:46:56;;;;;;;10.05;1.98;;;1.40;99.90;;;;;;5065631;28;20048;-66
2021/04/08 02:49:22;;;;;;;17.00;1.73;;;1.30;99.90;;;;;;5066345;28;20044;-66
2021/04/08 02:51:55;;;;;;;9.68;1.70;;;1.30;99.90;;;;;;5065788;28;20049;-66
2021/04/08 02:54:33;;;;;;;9.32;1.65;;;1.30;99.90;;;;;;5051618;28;20048;-65
2021/04/08 02:57:01;;;;;;;5.97;1.77;;;1.30;99.90;;;;;;5066270;28;20064;-65
2021/04/08 02:59:43;;;;;;;10.20;1.80;;;1.50;99.90;;;;;;5065788;28;20092;-66
2021/04/08 03:02:11;;;;;;;4.68;1.30;;;1.70;99.90;;;;;;5065689;28;20040;-65
2021/04/08 03:04:40;;;;;;;;;;;1.70;99.90;;;;;;5066177;28;20049;-65
2021/04/08 03:07:07;;;;;;;9.67;2.13;;;1.80;99.90;;;;;;5065619;28;20019;-65
2021/04/08 03:09:37;;;;;;;13.40;1.60;;;1.80;99.90;;;;;;5065113;28;20307;-65
2021/04/08 03:12:08;;;;;;;13.02;1.70;;;1.90;99.90;;;;;;5065989;28;20048;-65
2021/04/08 03:14:40;;;;;;;15.40;2.15;;;1.80;99.90;;;;;;5065309;28;20069;-66
2021/04/08 03:17:07;;;;;;;13.73;1.60;;;1.70;99.90;;;;;;5056268;28;20049;-65
2021/04/08 03:19:36;;;;;;;12.15;1.70;;;1.70;99.90;;;;;;5062305;28;20516;-65
2021/04/08 03:22:03;;;;;;;15.18;2.45;;;1.70;99.90;;;;;;5065492;28;20503;-66
2021/04/08 03:24:32;;;;;;;9.00;2.35;;;1.70;99.90;;;;;;5064761;28;20052;-66
2021/04/08 03:26:58;;;;;;;10.20;1.58;;;1.70;99.90;;;;;;5065369;28;20049;-65
2021/04/08 03:29:24;;;;;;;13.40;2.00;;;1.70;99.90;;;;;;5065159;28;20049;-66
2021/04/08 03:31:50;;;;;;;8.52;2.17;;;1.70;99.90;;;;;;5065164;28;20104;-65
2021/04/08 03:34:17;;;;;;;10.50;1.60;;;1.70;99.90;;;;;;5064918;28;20074;-65
2021/04/08 03:36:43;;;;;;;12.25;2.03;;;1.70;99.90;;;;;;5065032;28;20066;-64
2021/04/08 03:39:10;;;;;;;14.52;2.10;;;1.70;99.90;;;;;;5070638;28;20055;-66
2021/04/08 03:41:42;;;;;;;21.00;2.20;;;1.60;99.90;;;;;;5068465;28;20075;-65
2021/04/08 03:44:11;;;;;;;14.13;2.10;;;1.60;99.90;;;;;;5065873;28;20051;-66
2021/04/08 03:46:39;;;;;;;14.15;2.90;;;1.60;99.90;;;;;;5077064;28;20175;-66
2021/04/08 03:49:11;;;;;;;13.77;2.20;;;1.60;99.90;;;;;;5072345;28;20081;-65
2021/04/08 03:51:38;;;;;;;7.20;2.50;;;1.60;99.90;;;;;;5070966;28;20056;-65
2021/04/08 03:54:08;;;;;;;17.20;2.55;;;1.60;99.90;;;;;;5075858;28;20048;-65
2021/04/08 03:56:37;;;;;;;10.32;1.50;;;1.60;99.90;;;;;;5076025;28;20048;-65
2021/04/08 03:59:04;;;;;;;15.63;2.58;;;1.70;99.90;;;;;;5083130;28;20051;-65
2021/04/08 04:01:33;;;;;;;18.60;4.07;;;1.60;99.90;;;;;;5070933;28;20057;-66
2021/04/08 04:04:01;;;;;;;7.50;2.03;;;1.70;99.90;;;;;;5083254;28;20041;-65
2021/04/08 04:06:30;;;;;;;12.30;1.90;;;1.70;99.90;;;;;;5075920;28;20060;-65
2021/04/08 04:08:56;;;;;;;12.20;2.55;;;1.80;99.90;;;;;;5082842;28;20048;-66
2021/04/08 04:11:22;;;;;;;8.27;2.58;;;1.80;99.90;;;;;;5075311;28;20059;-66
2021/04/08 04:13:49;;;;;;;13.85;2.15;;;1.80;99.90;;;;;;5081263;28;20045;-66
2021/04/08 04:16:17;;;;;;;7.68;2.38;;;1.80;99.90;;;;;;5077671;28;20100;-66
2021/04/08 04:18:43;;;;;;;13.50;2.70;;;1.80;99.90;;;;;;5079470;28;20040;-66
2021/04/08 04:21:10;;;;;;;13.02;1.92;;;1.80;99.90;;;;;;5078830;28;20071;-66
2021/04/08 04:23:37;;;;;;;5.65;1.58;;;1.70;99.90;;;;;;5071946;28;20063;-66
2021/04/08 04:26:03;;;;;;;10.57;2.17;;;1.80;99.90;;;;;;5079670;28;20093;-66
2021/04/08 04:28:29;;;;;;;7.70;2.17;;;1.70;99.90;;;;;;5075008;28;20500;-65
2021/04/08 04:30:56;;;;;;;13.82;2.17;;;1.70;99.90;;;;;;5054355;28;20051;-65
2021/04/08 04:33:22;;;;;;;15.32;3.08;;;1.70;99.90;;;;;;5069078;28;20063;-65
2021/04/08 04:35:47;;;;;;;13.65;2.33;;;1.70;99.90;;;;;;5081986;28;20041;-65
2021/04/08 04:38:13;;;;;;;10.38;2.75;;;1.70;99.90;;;;;;5074445;28;20049;-65
2021/04/08 04:40:39;;;;;;;14.85;1.73;;;1.60;99.90;;;;;;5079944;28;20049;-65
2021/04/08 04:43:05;;;;;;;11.25;1.88;;;1.70;99.90;;;;;;5065095;28;20041;-65
2021/04/08 04:45:35;;;;;;;6.72;1.88;;;1.70;99.90;;;;;;5078406;28;20045;-65
2021/04/08 04:48:01;;;;;;;10.50;1.90;;;1.70;99.90;;;;;;5070817;28;20087;-65
2021/04/08 04:50:28;;;;;;;11.45;2.08;;;1.70;99.90;;;;;;5065481;28;20087;-65
2021/04/08 04:52:54;;;;;;;14.65;2.53;;;1.80;99.90;;;;;;5077627;28;20041;-65
2021/04/08 04:55:19;;;;;;;9.57;1.70;;;1.80;99.90;;;;;;5063584;28;20041;-65
2021/04/08 04:57:45;;;;;;;16.45;2.45;;;1.90;99.90;;;;;;5067507;28;20049;-65
2021/04/08 05:00:11;;;;;;;13.48;2.60;;;1.90;99.90;;;;;;5078650;28;20512;-66
2021/04/08 05:02:37;;;;;;;14.65;2.97;;;2.00;99.90;;;;;;5071015;28;20080;-65
2021/04/08 05:05:04;;;;;;;9.90;2.03;;;2.00;99.90;;;;;;5078323;28;20045;-65
2021/04/08 05:07:30;;;;;;;12.25;1.88;;;2.00;99.90;;;;;;5070991;28;20045;-65
2021/04/08 05:09:56;;;;;;;12.88;2.75;;;1.80;99.90;;;;;;5075271;28;20100;-66
2021/04/08 05:12:22;;;;;;;11.70;2.33;;;1.60;99.90;;;;;;5074610;28;20041;-65
2021/04/08 05:14:47;;;;;;;20.45;3.15;;;1.40;99.90;;;;;;5074029;28;20136;-66
2021/04/08 05:17:13;;;;;;;8.60;1.95;;;1.30;99.90;;;;;;5076644;28;20071;-67
2021/04/08 05:19:40;;;;;;;7.28;1.73;;;1.30;99.90;;;;;;5071828;28;20052;-67
2021/04/08 05:22:05;;;;;;;12.93;1.80;;;1.20;99.90;;;;;;5078497;28;20045;-67
2021/04/08 05:24:31;;;;;;;12.65;2.20;;;1.20;99.90;;;;;;5070998;28;20049;-66
2021/04/08 05:26:57;;;;;;;12.98;2.22;;;1.30;99.90;;;;;;5077830;28;20048;-67
2021/04/08 05:29:25;;;;;;;9.30;1.55;;;1.30;99.90;;;;;;5071419;28;20048;-66
2021/04/08 05:31:51;;;;;;;6.50;1.58;;;1.30;99.90;;;;;;5073782;28;20396;-67
2021/04/08 05:34:16;;;;;;;15.40;2.20;;;1.40;99.90;;;;;;5082306;28;20045;-67
2021/04/08 05:36:42;;;;;;;10.73;2.10;;;1.30;99.90;;;;;;5078036;28;20044;-66
2021/04/08 05:39:08;;;;;;;9.48;2.03;;;1.40;99.90;;;;;;5069144;28;20051;-67
2021/04/08 05:41:34;;;;;;;7.95;2.40;;;1.50;99.90;;;;;;5076651;28;20048;-66
2021/04/08 05:44:00;;;;;;;9.68;1.83;;;1.50;99.90;;;;;;5069200;28;20048;-66
2021/04/08 05:46:25;;;;;;;7.35;1.88;;;1.50;99.90;;;;;;5076463;28;20056;-66
2021/04/08 05:48:52;;;;;;;10.63;2.33;;;1.50;99.90;;;;;;5079462;28;20052;-66
2021/04/08 05:51:18;;;;;;;4.30;1.50;;;1.50;99.90;;;;;;5071766;28;20100;-66
2021/04/08 05:53:43;;;;;;;11.43;1.85;;;1.60;99.90;;;;;;5079457;28;20040;-66
2021/04/08 05:56:09;;;;;;;10.00;2.38;;;1.60;99.90;;;;;;5067938;28;20044;-65
2021/04/08 05:58:35;;;;;;;11.43;2.03;;;1.60;99.90;;;;;;5078979;28;20052;-65
2021/04/08 06:01:01;;;;;;;7.05;1.95;;;1.70;99.90;;;;;;5071589;28;20104;-66
2021/04/08 06:03:27;;;;;;;11.45;1.67;;;1.70;99.90;;;;;;5082598;28;20052;-66
2021/04/08 06:05:53;;;;;;;9.98;1.98;;;1.80;99.90;;;;;;5077063;28;20045;-66
2021/04/08 06:08:19;;;;;;;6.78;1.58;;;1.80;99.90;;;;;;5081438;28;20436;-66
2021/04/08 06:10:45;;;;;;;11.32;1.88;;;1.90;99.90;;;;;;5075072;28;20044;-66
2021/04/08 06:13:11;;;;;;;13.55;2.20;;;1.90;99.90;;;;;;5069614;28;20056;-65
2021/04/08 06:15:36;;;;;;;5.97;1.67;;;2.00;99.90;;;;;;5080009;28;20068;-66
2021/04/08 06:18:02;;;;;;;13.32;1.83;;;2.00;99.90;;;;;;5062521;28;20060;-66
2021/04/08 06:20:29;;;;;;;4.95;1.17;;;2.10;99.90;;;;;;5081952;28;20045;-65
2021/04/08 06:22:58;;;;;;;8.10;2.30;;;2.10;99.90;;;;;;5075399;28;20116;-65
2021/04/08 06:25:24;;;;;;;8.10;2.60;;;2.20;99.90;;;;;;5082062;28;20052;-66
2021/04/08 06:27:50;;;;;;;8.45;2.20;;;2.20;99.90;;;;;;5075222;28;20412;-66
2021/04/08 06:30:18;;;;;;;8.57;2.20;;;2.20;99.90;;;;;;5082727;28;20052;-67
2021/04/08 06:32:44;;;;;;;14.10;1.98;;;2.30;99.90;;;;;;5075437;28;20045;-66
2021/04/08 06:35:11;;;;;;;8.55;2.05;;;2.30;99.90;;;;;;5079427;28;20086;-66
2021/04/08 06:37:36;;;;;;;14.15;2.33;;;2.40;99.90;;;;;;5089962;28;20511;-66
2021/04/08 06:40:05;;;;;;;6.07;1.95;;;2.40;99.90;;;;;;5079828;28;20060;-66
2021/04/08 06:42:35;;;;;;;8.15;2.00;;;2.50;99.90;;;;;;5067540;28;20045;-66
2021/04/08 06:45:02;;;;;;;7.05;2.35;;;2.50;99.90;;;;;;5079061;28;20088;-66
2021/04/08 06:47:40;;;;;;;9.65;1.90;;;2.60;99.90;;;;;;5081514;28;20094;-67
2021/04/08 06:50:07;;;;;;;6.47;1.45;;;2.60;99.90;;;;;;5076266;28;20106;-66
2021/04/08 06:52:34;;;;;;;11.52;2.08;;;2.70;99.90;;;;;;5081267;28;20048;-65
2021/04/08 06:55:00;;;;;;;7.88;1.95;;;2.80;99.90;;;;;;5065877;28;20051;-66
2021/04/08 06:57:27;;;;;;;11.60;2.22;;;2.80;99.90;;;;;;5073055;28;20074;-66
2021/04/08 06:59:56;;;;;;;6.10;3.03;;;2.80;99.90;;;;;;5073670;28;20036;-65
2021/04/08 07:02:22;;;;;;;5.13;1.88;;;2.90;99.90;;;;;;5078517;28;20094;-65
2021/04/08 07:04:49;;;;;;;13.48;1.77;;;2.90;99.90;;;;;;5075225;28;20045;-65
2021/04/08 07:07:15;;;;;;;6.20;1.30;;;2.90;99.90;;;;;;5082629;28;20064;-66
2021/04/08 07:09:41;;;;;;;14.02;2.42;;;2.90;99.90;;;;;;5074655;28;20041;-65
2021/04/08 07:12:10;;;;;;;11.50;2.65;;;3.00;99.90;;;;;;5081738;28;20045;-66
2021/04/08 07:14:37;;;;;;;7.22;2.00;;;3.00;99.90;;;;;;5074896;28;20059;-65
2021/04/08 07:17:08;;;;;;;7.50;1.40;;;3.00;99.90;;;;;;5081652;28;20036;-65
2021/04/08 07:19:36;;;;;;;9.65;2.15;;;3.10;99.90;;;;;;5074862;28;20056;-66
2021/04/08 07:22:02;;;;;;;9.38;2.75;;;3.20;99.90;;;;;;5081749;28;20131;-65
2021/04/08 07:24:28;;;;;;;13.52;1.90;;;3.20;99.90;;;;;;5068707;28;20098;-65
2021/04/08 07:26:58;;;;;;;9.45;2.15;;;3.30;99.90;;;;;;5079447;28;20049;-66
2021/04/08 07:29:45;;;;;;;14.65;2.00;;;3.30;99.90;;;;;;5077858;28;20041;-66
2021/04/08 07:32:35;;;;;;;9.80;1.80;;;3.30;99.90;;;;;;5080319;28;20040;-66
2021/04/08 07:35:19;;;;;;;7.43;1.98;;;3.40;99.90;;;;;;5074037;28;20563;-66
2021/04/08 07:37:56;;;;;;;5.78;2.42;;;3.40;99.90;;;;;;5080997;28;20044;-65
2021/04/08 07:40:25;;;;;;;8.75;2.50;;;3.50;99.90;;;;;;5073019;28;20056;-65
2021/04/08 07:42:51;;;;;;;11.00;2.22;;;3.50;99.90;;;;;;5080803;28;20075;-66
2021/04/08 07:45:25;;;;;;;7.50;1.77;;;3.60;99.90;;;;;;5073329;28;20057;-66
2021/04/08 07:47:58;;;;;;;9.27;2.40;;;3.60;99.90;;;;;;5076262;28;20420;-66
2021/04/08 07:50:24;;;;;;;8.13;1.50;;;3.70;99.90;;;;;;5083365;28;20177;-66
2021/04/08 07:52:51;;;;;;;5.00;1.70;;;3.70;99.90;;;;;;5075814;28;20040;-66
2021/04/08 07:55:21;;;;;;;10.32;1.70;;;3.80;99.90;;;;;;5073108;28;20041;-66
2021/04/08 07:58:05;;;;;;;12.63;1.73;;;3.80;99.90;;;;;;5072055;28;20095;-65
2021/04/08 08:00:41;;;;;;;6.60;1.95;;;3.90;99.90;;;;;;5082684;28;20508;-66
2021/04/08 08:03:25;;;;;;;11.07;1.67;;;4.00;99.90;;;;;;5070438;28;20048;-65
2021/04/08 08:05:52;;;;;;;7.18;2.13;;;4.10;99.90;;;;;;5082387;28;20045;-65
2021/04/08 08:08:20;;;;;;;7.80;1.83;;;4.20;99.90;;;;;;5075173;28;20044;-65
2021/04/08 08:10:59;;;;;;;5.78;1.88;;;4.30;99.90;;;;;;5082058;28;20056;-66
2021/04/08 08:13:33;;;;;;;7.72;1.70;;;4.30;99.90;;;;;;5075206;28;20178;-65
2021/04/08 08:16:00;;;;;;;5.32;2.25;;;4.40;99.90;;;;;;5081741;28;20047;-66
2021/04/08 08:18:30;;;;;;;6.80;1.88;;;4.60;99.90;;;;;;5090090;28;20048;-66
2021/04/08 08:21:28;;;;;;;6.88;1.95;;;4.50;99.90;;;;;;5081822;28;20157;-65
2021/04/08 08:23:58;;;;;;;8.30;1.80;;;4.70;99.90;;;;;;5073892;28;20041;-66
2021/04/08 08:26:34;;;;;;;6.93;1.80;;;4.80;99.90;;;;;;5081455;28;20457;-66
2021/04/08 08:29:06;;;;;;;10.25;1.73;;;4.90;99.90;;;;;;5074314;28;20119;-67
2021/04/08 08:31:53;;;;;;;5.75;1.77;;;5.00;99.90;;;;;;5067083;28;20091;-66
2021/04/08 08:34:33;;;;;;;6.45;1.65;;;5.10;99.90;;;;;;5073814;28;20044;-67
2021/04/08 08:37:05;;;;;;;7.50;1.98;;;5.20;99.90;;;;;;5078654;28;20098;-65
2021/04/08 08:39:33;;;;;;;9.25;1.70;;;5.30;99.90;;;;;;5073336;28;20044;-65
2021/04/08 08:42:01;;;;;;;7.22;1.60;;;5.40;99.90;;;;;;5080506;28;20048;-66
2021/04/08 08:44:27;;;;;;;7.60;1.35;;;5.60;99.90;;;;;;5073784;28;20127;-66
2021/04/08 08:47:13;;;;;;;8.10;1.90;;;5.70;99.90;;;;;;5080525;28;20068;-66
2021/04/08 08:49:43;;;;;;;5.60;2.00;;;5.70;99.90;;;;;;5069136;28;20040;-66
2021/04/08 08:52:19;;;;;;;8.23;1.88;;;5.70;99.90;;;;;;5076108;28;20140;-65
2021/04/08 08:54:45;;;;;;;7.90;1.52;;;5.90;99.90;;;;;;5068737;28;20041;-66
2021/04/08 08:57:11;;;;;;;9.50;2.17;;;5.90;99.90;;;;;;5075989;28;20047;-66
2021/04/08 08:59:39;;;;;;;8.43;1.98;;;5.90;99.90;;;;;;5068870;28;20044;-66
2021/04/08 09:02:07;;;;;;;5.28;1.05;;;5.90;99.90;;;;;;5073972;28;20100;-65
2021/04/08 09:04:33;;;;;;;5.60;2.08;;;6.00;99.90;;;;;;5067990;28;20041;-65
2021/04/08 09:07:03;;;;;;;9.18;2.13;;;6.00;99.90;;;;;;5075446;28;20048;-65
2021/04/08 09:09:30;;;;;;;7.13;2.00;;;6.10;99.90;;;;;;5067263;28;20101;-66
2021/04/08 09:11:58;;;;;;;13.05;1.80;;;6.00;99.90;;;;;;5068471;28;20062;-66
2021/04/08 09:14:25;;;;;;;;;;;6.00;99.90;;;;;;5076948;28;20074;-66
2021/04/08 09:16:51;;;;;;;11.50;1.70;;;6.10;99.50;;;;;;5069126;28;19920;-65
2021/04/08 09:19:29;;;;;;;6.90;1.85;;;6.00;98.70;;;;;;5081616;28;20048;-65
2021/04/08 09:21:58;;;;;;;10.27;1.50;;;6.00;97.70;;;;;;5074728;28;20036;-65
2021/04/08 09:24:47;;;;;;;10.75;2.33;;;6.10;98.70;;;;;;5066391;28;20065;-65
2021/04/08 09:27:30;;;;;;;5.28;1.70;;;6.10;99.60;;;;;;5063137;28;20051;-66
2021/04/08 09:29:58;;;;;;;10.32;2.17;;;6.30;99.40;;;;;;5078124;28;20048;-65
2021/04/08 09:32:25;;;;;;;4.70;1.52;;;6.40;99.00;;;;;;5073999;28;20052;-66
2021/04/08 09:35:09;;;;;;;10.52;2.40;;;6.60;99.90;;;;;;5080813;28;20496;-67
2021/04/08 09:37:55;;;;;;;9.05;2.15;;;6.60;97.20;;;;;;5063106;28;20083;-65
2021/04/08 09:40:21;;;;;;;6.50;1.75;;;6.60;97.10;;;;;;5057889;28;20075;-66
2021/04/08 09:42:56;;;;;;;8.63;1.92;;;6.70;99.20;;;;;;5073502;28;20458;-65
2021/04/08 09:45:22;;;;;;;4.50;1.77;;;6.80;98.20;;;;;;5080921;28;20048;-65
2021/04/08 09:48:09;;;;;;;6.65;1.80;;;6.90;97.40;;;;;;5069094;28;20534;-66
2021/04/08 09:50:55;;;;;;;14.10;2.97;;;6.90;97.30;;;;;;5075912;28;20048;-65
2021/04/08 09:53:30;;;;;;;11.55;2.30;;;7.00;97.40;;;;;;5050627;28;20037;-66
2021/04/08 09:56:03;;;;;;;6.70;1.77;;;7.10;97.30;;;;;;5076680;28;20044;-65
2021/04/08 09:58:31;;;;;;;6.35;2.47;;;7.20;99.20;;;;;;5057991;28;20097;-66
2021/04/08 10:00:58;;;;;;;;;;;7.10;96.80;;;;;;5071560;28;20079;-65
2021/04/08 10:03:36;;;;;;;6.43;2.17;;;7.30;98.40;;;;;;5069453;28;19935;-66
2021/04/08 10:06:20;;;;;;;12.63;2.53;;;7.40;98.00;;;;;;5056836;28;20099;-66
2021/04/08 10:08:47;;;;;;;8.68;2.55;;;7.80;97.60;;;;;;5057952;28;20059;-67
2021/04/08 10:11:14;;;;;;;6.85;2.25;;;7.90;96.60;;;;;;5075888;28;20052;-65
2021/04/08 10:13:41;;;;;;;4.90;2.03;;;7.90;96.30;;;;;;5069300;28;20048;-67
2021/04/08 10:16:13;;;;;;;6.18;2.40;;;7.40;95.40;;;;;;5072543;28;20382;-66
2021/04/08 10:18:40;;;;;;;11.77;2.20;;;7.20;96.30;;;;;;5069064;28;20497;-66
2021/04/08 10:21:26;;;;;;;8.23;2.00;;;7.10;96.20;;;;;;5069911;28;20061;-66
2021/04/08 10:24:15;;;;;;;9.70;2.38;;;6.80;94.80;;;;;;5067492;28;20113;-65
2021/04/08 10:27:09;;;;;;;5.25;2.42;;;6.90;96.50;;;;;;5074781;28;20052;-66
2021/04/08 10:29:55;;;;;;;3.45;1.60;;;7.00;95.90;;;;;;5067501;28;20055;-65
2021/04/08 10:32:51;;;;;;;5.35;2.08;;;7.20;95.50;;;;;;5081843;28;20127;-66
2021/04/08 10:35:26;;;;;;;2.97;1.83;;;7.20;93.50;;;;;;5065191;28;20057;-66
2021/04/08 10:38:03;;;;;;;6.40;2.40;;;7.30;92.70;;;;;;5081301;28;20049;-66
2021/04/08 10:40:29;;;;;;;4.43;1.45;;;7.50;91.00;;;;;;5067976;28;20392;-66
2021/04/08 10:43:12;;;;;;;8.05;1.85;;;7.40;84.80;;;;;;5080909;28;20045;-66
2021/04/08 10:45:48;;;;;;;7.22;2.53;;;7.80;89.40;;;;;;5067931;28;20040;-66
2021/04/08 10:48:14;;;;;;;6.35;2.65;;;7.90;82.00;;;;;;5078230;28;20048;-68
2021/04/08 10:50:40;;;;;;;5.78;2.30;;;8.00;78.40;;;;;;5073928;28;20099;-67
2021/04/08 10:53:06;;;;;;;5.95;2.15;;;8.00;75.20;;;;;;5079465;28;20048;-67
2021/04/08 10:55:31;;;;;;;7.32;3.17;;;8.10;73.00;;;;;;5073828;28;20045;-67
2021/04/08 10:57:57;;;;;;;4.43;2.47;;;8.20;68.90;;;;;;5076349;28;20066;-67
2021/04/08 11:00:24;;;;;;;4.72;3.05;;;8.00;65.40;;;;;;5077142;28;20060;-67
2021/04/08 11:02:50;;;;;;;4.15;2.33;;;8.00;68.20;;;;;;5075302;28;20057;-67
2021/04/08 11:05:20;;;;;;;6.55;2.80;;;7.80;64.80;;;;;;5089557;28;20045;-67
2021/04/08 11:07:48;;;;;;;7.80;2.65;;;7.80;70.50;;;;;;5061927;28;20467;-66
2021/04/08 11:10:28;;;;;;;4.88;2.50;;;7.80;70.80;;;;;;5079201;28;20045;-67
2021/04/08 11:12:56;;;;;;;3.88;2.95;;;7.60;68.90;;;;;;5073443;28;20079;-65
2021/04/08 11:15:29;;;;;;;5.05;2.88;;;7.50;71.60;;;;;;5078713;28;20056;-67
2021/04/08 11:17:59;;;;;;;7.85;2.83;;;7.50;72.30;;;;;;5072814;28;20040;-66
2021/04/08 11:20:37;;;;;;;5.43;2.65;;;7.60;69.70;;;;;;5051322;28;20079;-66
2021/04/08 11:23:05;;;;;;;4.68;2.97;;;7.70;68.80;;;;;;5065424;28;20088;-66
2021/04/08 11:25:32;;;;;;;5.75;2.80;;;7.70;66.20;;;;;;5065250;28;20041;-67
2021/04/08 11:28:02;;;;;;;7.35;2.97;;;8.00;69.30;;;;;;5072243;28;20043;-65
2021/04/08 11:30:37;;;;;;;5.07;2.70;;;7.90;68.80;;;;;;5078925;28;20052;-66
2021/04/08 11:33:08;;;;;;;3.97;2.97;;;8.10;69.00;;;;;;5072233;28;20052;-67
2021/04/08 11:35:39;;;;;;;4.22;2.63;;;8.40;71.00;;;;;;5078971;28;20048;-66
2021/04/08 11:38:15;;;;;;;5.25;2.88;;;7.90;64.60;;;;;;5072117;28;20041;-66
2021/04/08 11:41:01;;;;;;;9.10;3.65;;;7.70;64.70;;;;;;5078172;28;20041;-66
2021/04/08 11:43:32;;;;;;;6.53;3.70;;;7.50;64.60;;;;;;5060699;28;20068;-67
2021/04/08 11:46:01;;;;;;;6.97;3.38;;;7.60;66.40;;;;;;5080394;28;20036;-66
2021/04/08 11:48:39;;;;;;;9.98;4.53;;;7.50;67.00;;;;;;5078343;28;20055;-66
2021/04/08 11:51:06;;;;;;;6.55;4.05;;;7.60;68.60;;;;;;5082374;28;20056;-66
2021/04/08 11:53:34;;;;;;;7.23;3.27;;;7.60;69.80;;;;;;5075962;28;20068;-66
2021/04/08 11:56:00;;;;;;;11.00;4.00;;;7.60;70.70;;;;;;5073093;28;20048;-66
2021/04/08 11:58:34;;;;;;;10.23;3.70;;;7.60;71.30;;;;;;5066442;28;20428;-66
2021/04/08 12:01:15;;;;;;;5.25;3.28;;;7.70;69.10;;;;;;5069351;28;20079;-67
2021/04/08 12:03:45;;;;;;;7.82;3.85;;;7.80;71.00;;;;;;5077903;28;20107;-66
2021/04/08 12:06:13;;;;;;;10.10;4.72;;;8.00;73.30;;;;;;5074187;28;20060;-67
2021/04/08 12:08:45;;;;;;;10.80;5.20;;;7.80;71.50;;;;;;5078581;28;20048;-67
2021/04/08 12:11:15;;;;;;;7.28;4.63;;;7.80;71.20;;;;;;5072711;28;20068;-67
2021/04/08 12:13:43;;;;;;;6.85;3.92;;;7.80;70.60;;;;;;5078735;28;20047;-66
2021/04/08 12:16:23;;;;;;;7.63;4.97;;;7.70;70.60;;;;;;5072392;28;20119;-67
2021/04/08 12:18:49;;;;;;;9.38;4.80;;;7.60;71.70;;;;;;5065402;28;20573;-67
2021/04/08 12:21:14;;;;;;;6.50;4.78;;;7.60;72.50;;;;;;5072631;28;20045;-67
2021/04/08 12:23:40;;;;;;;8.35;4.63;;;7.60;72.60;;;;;;5078448;28;20074;-66
2021/04/08 12:26:07;;;;;;;8.15;4.75;;;7.80;75.40;;;;;;5080346;28;20052;-67
2021/04/08 12:28:34;;;;;;;7.55;5.35;;;8.10;73.30;;;;;;5079266;28;20055;-66
2021/04/08 12:31:00;;;;;;;9.88;5.90;;;8.20;74.00;;;;;;5072048;28;20044;-67
2021/04/08 12:33:38;;;;;;;9.35;5.68;;;8.40;74.10;;;;;;5078250;28;20093;-67
2021/04/08 12:36:07;;;;;;;14.27;6.50;;;8.60;73.80;;;;;;5061427;28;20052;-67
2021/04/08 12:38:34;;;;;;;9.77;6.55;;;8.80;71.60;;;;;;5078784;28;20071;-67
2021/04/08 12:41:01;;;;;;;10.73;6.50;;;8.70;69.00;;;;;;5059114;28;20086;-68
2021/04/08 12:43:28;;;;;;;9.70;6.10;;;8.80;70.30;;;;;;5077751;28;20142;-68
2021/04/08 12:45:54;;;;;;;7.78;5.55;;;9.10;70.10;;;;;;5068374;28;20048;-67
2021/04/08 12:48:20;;;;;;;7.50;4.82;;;9.90;69.30;;;;;;5072567;28;20071;-67
2021/04/08 12:50:48;;;;;;;7.88;5.53;;;9.80;65.40;;;;;;5080111;28;20131;-68
2021/04/08 12:53:15;;;;;;;10.88;6.68;;;10.00;67.70;;;;;;5072968;28;20100;-67
2021/04/08 12:55:41;;;;;;;9.52;5.78;;;9.70;66.20;;;;;;5079262;28;20139;-69
2021/04/08 12:58:08;;;;;;;12.65;6.68;;;9.10;67.10;;;;;;5072970;28;20100;-67
2021/04/08 13:00:34;;;;;;;10.80;6.40;;;9.20;69.80;;;;;;5066213;28;20056;-68
2021/04/08 13:03:00;;;;;;;10.32;5.55;;;9.50;69.50;;;;;;5069585;28;20052;-67
2021/04/08 13:05:27;;;;;;;7.47;5.40;;;9.40;67.90;;;;;;5079222;28;20052;-68